Pellville, Kentucky
Current Conditions -  °F | °C
As of 10:56 PM on Sunday 21 Dec 2014 (Local Time) from KOWB Reporting Station
Clear Clear  
Wind Chill: 28°   Ceiling: Unl
Heat Index: 34°   Visibility: 10mi
Dew Point: 28°   Wind: 7mph
Humidity: 79%   Direction: 100°E
Pressure: 30.03"   Gusts: NA
Location:  37.75°N, 86.81°W
Report Text: KOWB 220456Z AUTO 10006KT 10SM CLR 01/M02 A3003 RMK AO2 TSNO T00111022 SLP170
Loading
Personal Weather Stations






























Interactive Weather Map New forecast layout! Learn more

10-Day Weather Forecast

Advertisements
Track Severe Weather on mobile